Aviation Digital Data Service (ADDS)

Output produced by TAFs form (0046 UTC 20 July 2018)
found at http://aviationweather.gov/adds/tafs/
 
KTUS 192340Z 2000/2024 32010KT P6SM VCTS SCT100CB BKN120 
     FM200200 34010KT P6SM SCT100 BKN200 
     FM200500 16008KT P6SM SCT140 BKN250 
     FM201400 VRB03KT P6SM FEW080 
     FM201800 34007KT P6SM SCT080